LICJ/PMO METAR and TAF weather

Enter ICAO airport designator
Station Type Date Time Source
LICJ METAR 2019/12/07 14:50 UTC NOAA

LICJ 071450Z 06003KT CAVOK 18/12 Q1021


Station Type Date Time Source
LICJ Decoded METAR 2019/12/07 14:50 UTC NOAA

Palermo / Punta Raisi, Italy (LICJ) 38-11N 013-06E 21M
Dec 07, 2019 - 09:50 AM EST / 2019.12.07 1450 UTC
Wind: from the ENE (060 degrees) at 3 MPH (3 KT):0
Visibility: greater than 7 mile(s):0
Temperature: 64 F (18 C)
Dew Point: 53 F (12 C)
Relative Humidity: 67%
Pressure (altimeter): 30.15 in. Hg (1021 hPa)
ob: LICJ 071450Z 06003KT CAVOK 18/12 Q1021
cycle: 15

Station Type Date Time Source
LICJ TAF 2019/12/07 12:21 UTC NOAA

TAF LICJ 071100Z 0712/0812 19008KT CAVOK

Example: see airport list